sensor_id;sensor_type;location;lat;lon;timestamp;P1;durP1;ratioP1;P2;durP2;ratioP2
13425;SDS011;6785;57.918;12.530;2024-03-08T00:00:33;14.63;;;8.33;;
13425;SDS011;6785;57.918;12.530;2024-03-08T00:03:01;15.77;;;8.73;;
13425;SDS011;6785;57.918;12.530;2024-03-08T00:05:29;20.57;;;8.77;;
13425;SDS011;6785;57.918;12.530;2024-03-08T00:07:56;14.37;;;8.17;;
13425;SDS011;6785;57.918;12.530;2024-03-08T00:10:25;17.27;;;7.97;;
13425;SDS011;6785;57.918;12.530;2024-03-08T00:12:53;15.90;;;8.30;;
13425;SDS011;6785;57.918;12.530;2024-03-08T00:15:20;15.97;;;8.43;;
13425;SDS011;6785;57.918;12.530;2024-03-08T00:17:48;17.33;;;8.40;;
13425;SDS011;6785;57.918;12.530;2024-03-08T00:20:17;16.23;;;7.90;;
13425;SDS011;6785;57.918;12.530;2024-03-08T00:22:46;14.07;;;8.50;;
13425;SDS011;6785;57.918;12.530;2024-03-08T00:25:13;14.80;;;8.07;;
13425;SDS011;6785;57.918;12.530;2024-03-08T00:27:41;14.63;;;9.37;;
13425;SDS011;6785;57.918;12.530;2024-03-08T00:30:08;13.70;;;8.53;;
13425;SDS011;6785;57.918;12.530;2024-03-08T00:32:36;20.10;;;9.20;;
13425;SDS011;6785;57.918;12.530;2024-03-08T00:35:03;18.73;;;8.97;;
13425;SDS011;6785;57.918;12.530;2024-03-08T00:37:33;20.50;;;9.33;;
13425;SDS011;6785;57.918;12.530;2024-03-08T00:40:00;16.30;;;8.87;;
13425;SDS011;6785;57.918;12.530;2024-03-08T00:42:27;12.53;;;8.30;;
13425;SDS011;6785;57.918;12.530;2024-03-08T00:44:54;13.93;;;8.00;;
13425;SDS011;6785;57.918;12.530;2024-03-08T00:47:23;15.70;;;8.60;;
13425;SDS011;6785;57.918;12.530;2024-03-08T00:49:50;10.87;;;7.97;;
13425;SDS011;6785;57.918;12.530;2024-03-08T00:52:18;14.57;;;8.40;;
13425;SDS011;6785;57.918;12.530;2024-03-08T00:54:46;20.13;;;9.20;;
13425;SDS011;6785;57.918;12.530;2024-03-08T00:57:13;15.70;;;7.87;;
13425;SDS011;6785;57.918;12.530;2024-03-08T00:59:40;16.33;;;8.43;;
13425;SDS011;6785;57.918;12.530;2024-03-08T01:02:09;17.23;;;8.57;;
13425;SDS011;6785;57.918;12.530;2024-03-08T01:04:36;16.37;;;7.73;;
13425;SDS011;6785;57.918;12.530;2024-03-08T01:07:03;16.03;;;8.80;;
13425;SDS011;6785;57.918;12.530;2024-03-08T01:09:30;12.80;;;8.37;;
13425;SDS011;6785;57.918;12.530;2024-03-08T01:11:59;10.83;;;7.43;;
13425;SDS011;6785;57.918;12.530;2024-03-08T01:14:26;13.30;;;7.77;;
13425;SDS011;6785;57.918;12.530;2024-03-08T01:16:53;13.20;;;8.10;;
13425;SDS011;6785;57.918;12.530;2024-03-08T01:19:21;18.07;;;8.17;;
13425;SDS011;6785;57.918;12.530;2024-03-08T01:21:49;13.00;;;7.57;;
13425;SDS011;6785;57.918;12.530;2024-03-08T01:24:16;13.80;;;7.37;;
13425;SDS011;6785;57.918;12.530;2024-03-08T01:26:43;14.50;;;7.97;;
13425;SDS011;6785;57.918;12.530;2024-03-08T01:29:11;15.63;;;8.13;;
13425;SDS011;6785;57.918;12.530;2024-03-08T01:31:38;14.70;;;7.73;;
13425;SDS011;6785;57.918;12.530;2024-03-08T01:34:05;13.70;;;7.53;;
13425;SDS011;6785;57.918;12.530;2024-03-08T01:36:32;11.30;;;7.73;;
13425;SDS011;6785;57.918;12.530;2024-03-08T01:38:59;14.43;;;8.00;;
13425;SDS011;6785;57.918;12.530;2024-03-08T01:41:26;14.97;;;8.33;;
13425;SDS011;6785;57.918;12.530;2024-03-08T01:43:54;14.17;;;8.53;;
13425;SDS011;6785;57.918;12.530;2024-03-08T01:46:23;11.17;;;7.67;;
13425;SDS011;6785;57.918;12.530;2024-03-08T01:48:50;16.87;;;7.80;;
13425;SDS011;6785;57.918;12.530;2024-03-08T01:51:17;12.47;;;7.83;;
13425;SDS011;6785;57.918;12.530;2024-03-08T01:53:45;14.03;;;8.13;;
13425;SDS011;6785;57.918;12.530;2024-03-08T01:56:14;11.00;;;7.00;;
13425;SDS011;6785;57.918;12.530;2024-03-08T01:58:42;10.03;;;6.63;;
13425;SDS011;6785;57.918;12.530;2024-03-08T02:01:13;13.93;;;7.87;;
13425;SDS011;6785;57.918;12.530;2024-03-08T02:03:46;10.47;;;6.57;;
13425;SDS011;6785;57.918;12.530;2024-03-08T02:06:15;13.47;;;7.17;;
13425;SDS011;6785;57.918;12.530;2024-03-08T02:08:42;12.53;;;6.90;;
13425;SDS011;6785;57.918;12.530;2024-03-08T02:11:10;13.77;;;7.03;;
13425;SDS011;6785;57.918;12.530;2024-03-08T02:13:38;13.77;;;7.83;;
13425;SDS011;6785;57.918;12.530;2024-03-08T02:16:05;10.57;;;7.33;;
13425;SDS011;6785;57.918;12.530;2024-03-08T02:18:33;12.40;;;6.63;;
13425;SDS011;6785;57.918;12.530;2024-03-08T02:21:02;10.73;;;6.33;;
13425;SDS011;6785;57.918;12.530;2024-03-08T02:23:30;11.87;;;6.13;;
13425;SDS011;6785;57.918;12.530;2024-03-08T02:25:57;12.77;;;7.00;;
13425;SDS011;6785;57.918;12.530;2024-03-08T02:28:24;13.43;;;6.43;;
13425;SDS011;6785;57.918;12.530;2024-03-08T02:30:51;10.27;;;5.83;;
13425;SDS011;6785;57.918;12.530;2024-03-08T02:33:20;8.77;;;6.00;;
13425;SDS011;6785;57.918;12.530;2024-03-08T02:35:48;11.17;;;6.43;;
13425;SDS011;6785;57.918;12.530;2024-03-08T02:38:17;13.73;;;6.53;;
13425;SDS011;6785;57.918;12.530;2024-03-08T02:40:45;14.30;;;5.87;;
13425;SDS011;6785;57.918;12.530;2024-03-08T02:43:12;12.23;;;6.63;;
13425;SDS011;6785;57.918;12.530;2024-03-08T02:45:40;12.90;;;6.97;;
13425;SDS011;6785;57.918;12.530;2024-03-08T02:48:09;13.33;;;6.90;;
13425;SDS011;6785;57.918;12.530;2024-03-08T02:50:36;11.83;;;6.37;;
13425;SDS011;6785;57.918;12.530;2024-03-08T02:53:04;13.07;;;5.80;;
13425;SDS011;6785;57.918;12.530;2024-03-08T02:55:33;10.43;;;7.00;;
13425;SDS011;6785;57.918;12.530;2024-03-08T02:58:00;12.33;;;7.00;;
13425;SDS011;6785;57.918;12.530;2024-03-08T03:00:28;12.23;;;6.73;;
13425;SDS011;6785;57.918;12.530;2024-03-08T03:02:55;12.20;;;6.43;;
13425;SDS011;6785;57.918;12.530;2024-03-08T03:05:24;13.07;;;7.10;;
13425;SDS011;6785;57.918;12.530;2024-03-08T03:07:52;12.80;;;6.80;;
13425;SDS011;6785;57.918;12.530;2024-03-08T03:10:24;12.73;;;7.70;;
13425;SDS011;6785;57.918;12.530;2024-03-08T03:12:55;16.53;;;6.97;;
13425;SDS011;6785;57.918;12.530;2024-03-08T03:15:21;13.00;;;6.90;;
13425;SDS011;6785;57.918;12.530;2024-03-08T03:17:48;8.43;;;5.90;;
13425;SDS011;6785;57.918;12.530;2024-03-08T03:20:16;15.43;;;7.00;;
13425;SDS011;6785;57.918;12.530;2024-03-08T03:22:48;13.00;;;6.80;;
13425;SDS011;6785;57.918;12.530;2024-03-08T03:25:17;9.17;;;6.20;;
13425;SDS011;6785;57.918;12.530;2024-03-08T03:27:48;9.70;;;6.37;;
13425;SDS011;6785;57.918;12.530;2024-03-08T03:30:17;9.83;;;6.87;;
13425;SDS011;6785;57.918;12.530;2024-03-08T03:32:47;9.80;;;6.63;;
13425;SDS011;6785;57.918;12.530;2024-03-08T03:35:14;11.23;;;6.93;;
13425;SDS011;6785;57.918;12.530;2024-03-08T03:37:41;11.63;;;7.00;;
13425;SDS011;6785;57.918;12.530;2024-03-08T03:40:10;10.87;;;6.57;;
13425;SDS011;6785;57.918;12.530;2024-03-08T03:42:39;11.83;;;7.10;;
13425;SDS011;6785;57.918;12.530;2024-03-08T03:45:06;13.03;;;7.87;;
13425;SDS011;6785;57.918;12.530;2024-03-08T03:47:35;11.33;;;7.43;;
13425;SDS011;6785;57.918;12.530;2024-03-08T03:50:06;12.10;;;7.73;;
13425;SDS011;6785;57.918;12.530;2024-03-08T03:52:34;11.47;;;7.30;;
13425;SDS011;6785;57.918;12.530;2024-03-08T03:55:01;11.63;;;7.30;;
13425;SDS011;6785;57.918;12.530;2024-03-08T03:57:29;11.57;;;6.93;;
13425;SDS011;6785;57.918;12.530;2024-03-08T03:59:56;10.60;;;7.27;;
13425;SDS011;6785;57.918;12.530;2024-03-08T04:02:23;12.70;;;8.13;;
13425;SDS011;6785;57.918;12.530;2024-03-08T04:04:52;19.33;;;8.33;;
13425;SDS011;6785;57.918;12.530;2024-03-08T04:07:20;13.60;;;8.10;;
13425;SDS011;6785;57.918;12.530;2024-03-08T04:09:47;17.03;;;8.57;;
13425;SDS011;6785;57.918;12.530;2024-03-08T04:12:14;15.27;;;8.43;;
13425;SDS011;6785;57.918;12.530;2024-03-08T04:14:42;16.33;;;9.13;;
13425;SDS011;6785;57.918;12.530;2024-03-08T04:17:09;18.63;;;8.93;;
13425;SDS011;6785;57.918;12.530;2024-03-08T04:19:37;14.13;;;9.50;;
13425;SDS011;6785;57.918;12.530;2024-03-08T04:22:06;19.20;;;8.97;;
13425;SDS011;6785;57.918;12.530;2024-03-08T04:24:33;14.60;;;9.17;;
13425;SDS011;6785;57.918;12.530;2024-03-08T04:27:00;16.97;;;8.47;;
13425;SDS011;6785;57.918;12.530;2024-03-08T04:29:27;12.67;;;7.70;;
13425;SDS011;6785;57.918;12.530;2024-03-08T04:31:53;14.57;;;8.87;;
13425;SDS011;6785;57.918;12.530;2024-03-08T04:34:21;14.33;;;7.57;;
13425;SDS011;6785;57.918;12.530;2024-03-08T04:36:47;14.57;;;8.30;;
13425;SDS011;6785;57.918;12.530;2024-03-08T04:39:15;17.47;;;8.63;;
13425;SDS011;6785;57.918;12.530;2024-03-08T04:41:43;15.20;;;8.03;;
13425;SDS011;6785;57.918;12.530;2024-03-08T04:44:11;14.43;;;7.93;;
13425;SDS011;6785;57.918;12.530;2024-03-08T04:46:38;17.10;;;7.67;;
13425;SDS011;6785;57.918;12.530;2024-03-08T04:49:06;14.23;;;8.50;;
13425;SDS011;6785;57.918;12.530;2024-03-08T04:51:33;14.40;;;8.47;;
13425;SDS011;6785;57.918;12.530;2024-03-08T04:53:59;21.43;;;8.57;;
13425;SDS011;6785;57.918;12.530;2024-03-08T04:56:27;18.83;;;9.27;;
13425;SDS011;6785;57.918;12.530;2024-03-08T04:58:54;27.13;;;9.60;;
13425;SDS011;6785;57.918;12.530;2024-03-08T05:01:21;13.77;;;8.07;;
13425;SDS011;6785;57.918;12.530;2024-03-08T05:03:49;15.87;;;8.13;;
13425;SDS011;6785;57.918;12.530;2024-03-08T05:06:19;12.10;;;8.10;;
13425;SDS011;6785;57.918;12.530;2024-03-08T05:08:45;14.10;;;7.87;;
13425;SDS011;6785;57.918;12.530;2024-03-08T05:11:12;18.47;;;7.57;;
13425;SDS011;6785;57.918;12.530;2024-03-08T05:13:42;15.47;;;7.37;;
13425;SDS011;6785;57.918;12.530;2024-03-08T05:16:14;11.80;;;7.03;;
13425;SDS011;6785;57.918;12.530;2024-03-08T05:18:41;14.13;;;6.60;;
13425;SDS011;6785;57.918;12.530;2024-03-08T05:21:12;10.80;;;6.67;;
13425;SDS011;6785;57.918;12.530;2024-03-08T05:23:39;16.93;;;7.17;;
13425;SDS011;6785;57.918;12.530;2024-03-08T05:26:07;10.70;;;6.97;;
13425;SDS011;6785;57.918;12.530;2024-03-08T05:28:34;13.43;;;6.83;;
13425;SDS011;6785;57.918;12.530;2024-03-08T05:31:02;10.47;;;7.13;;
13425;SDS011;6785;57.918;12.530;2024-03-08T05:33:29;13.07;;;7.00;;
13425;SDS011;6785;57.918;12.530;2024-03-08T05:35:56;11.43;;;6.20;;
13425;SDS011;6785;57.918;12.530;2024-03-08T05:38:24;11.00;;;7.00;;
13425;SDS011;6785;57.918;12.530;2024-03-08T05:40:51;11.17;;;6.80;;
13425;SDS011;6785;57.918;12.530;2024-03-08T05:43:17;10.57;;;7.53;;
13425;SDS011;6785;57.918;12.530;2024-03-08T05:45:44;14.77;;;7.53;;
13425;SDS011;6785;57.918;12.530;2024-03-08T05:48:13;10.80;;;6.63;;
13425;SDS011;6785;57.918;12.530;2024-03-08T05:50:39;11.97;;;7.13;;
13425;SDS011;6785;57.918;12.530;2024-03-08T05:53:09;16.10;;;7.17;;
13425;SDS011;6785;57.918;12.530;2024-03-08T05:55:37;11.43;;;7.47;;
13425;SDS011;6785;57.918;12.530;2024-03-08T05:58:04;13.43;;;7.17;;
13425;SDS011;6785;57.918;12.530;2024-03-08T06:00:33;14.70;;;8.13;;
13425;SDS011;6785;57.918;12.530;2024-03-08T06:03:01;15.17;;;7.77;;
13425;SDS011;6785;57.918;12.530;2024-03-08T06:05:30;12.33;;;7.17;;
13425;SDS011;6785;57.918;12.530;2024-03-08T06:07:56;13.13;;;7.80;;
13425;SDS011;6785;57.918;12.530;2024-03-08T06:10:23;11.77;;;7.97;;
13425;SDS011;6785;57.918;12.530;2024-03-08T06:12:50;12.23;;;7.77;;
13425;SDS011;6785;57.918;12.530;2024-03-08T06:15:17;12.63;;;7.67;;
13425;SDS011;6785;57.918;12.530;2024-03-08T06:17:47;11.37;;;7.47;;
13425;SDS011;6785;57.918;12.530;2024-03-08T06:20:14;12.73;;;8.03;;
13425;SDS011;6785;57.918;12.530;2024-03-08T06:22:42;14.73;;;8.27;;
13425;SDS011;6785;57.918;12.530;2024-03-08T06:25:10;12.73;;;7.73;;
13425;SDS011;6785;57.918;12.530;2024-03-08T06:27:42;14.33;;;7.80;;
13425;SDS011;6785;57.918;12.530;2024-03-08T06:30:11;14.77;;;8.00;;
13425;SDS011;6785;57.918;12.530;2024-03-08T06:32:38;14.47;;;7.90;;
13425;SDS011;6785;57.918;12.530;2024-03-08T06:35:05;20.20;;;8.30;;
13425;SDS011;6785;57.918;12.530;2024-03-08T06:37:33;18.27;;;9.00;;
13425;SDS011;6785;57.918;12.530;2024-03-08T06:40:01;16.93;;;9.97;;
13425;SDS011;6785;57.918;12.530;2024-03-08T06:42:32;14.00;;;8.50;;
13425;SDS011;6785;57.918;12.530;2024-03-08T06:45:00;19.37;;;8.57;;
13425;SDS011;6785;57.918;12.530;2024-03-08T06:47:30;18.47;;;9.10;;
13425;SDS011;6785;57.918;12.530;2024-03-08T06:49:57;13.33;;;7.00;;
13425;SDS011;6785;57.918;12.530;2024-03-08T06:52:23;21.10;;;8.67;;
13425;SDS011;6785;57.918;12.530;2024-03-08T06:54:51;11.33;;;6.50;;
13425;SDS011;6785;57.918;12.530;2024-03-08T06:57:20;15.17;;;7.10;;
13425;SDS011;6785;57.918;12.530;2024-03-08T06:59:49;10.63;;;6.90;;
13425;SDS011;6785;57.918;12.530;2024-03-08T07:02:17;18.97;;;8.50;;
13425;SDS011;6785;57.918;12.530;2024-03-08T07:04:44;16.17;;;8.73;;
13425;SDS011;6785;57.918;12.530;2024-03-08T07:07:10;16.63;;;8.77;;
13425;SDS011;6785;57.918;12.530;2024-03-08T07:09:37;14.17;;;10.13;;
13425;SDS011;6785;57.918;12.530;2024-03-08T07:12:04;16.27;;;9.30;;
13425;SDS011;6785;57.918;12.530;2024-03-08T07:14:33;17.80;;;9.13;;
13425;SDS011;6785;57.918;12.530;2024-03-08T07:17:00;20.97;;;7.90;;
13425;SDS011;6785;57.918;12.530;2024-03-08T07:19:26;15.20;;;8.27;;
13425;SDS011;6785;57.918;12.530;2024-03-08T07:21:53;12.70;;;8.73;;
13425;SDS011;6785;57.918;12.530;2024-03-08T07:24:21;12.27;;;8.23;;
13425;SDS011;6785;57.918;12.530;2024-03-08T07:27:05;17.57;;;8.57;;
13425;SDS011;6785;57.918;12.530;2024-03-08T07:29:33;20.33;;;9.30;;
13425;SDS011;6785;57.918;12.530;2024-03-08T07:32:00;17.47;;;9.37;;
13425;SDS011;6785;57.918;12.530;2024-03-08T07:34:37;10.83;;;7.87;;
13425;SDS011;6785;57.918;12.530;2024-03-08T07:37:05;14.50;;;8.53;;
13425;SDS011;6785;57.918;12.530;2024-03-08T07:39:35;12.50;;;8.20;;
13425;SDS011;6785;57.918;12.530;2024-03-08T07:42:03;15.13;;;8.17;;
13425;SDS011;6785;57.918;12.530;2024-03-08T07:44:30;16.97;;;9.03;;
13425;SDS011;6785;57.918;12.530;2024-03-08T07:46:58;18.03;;;8.53;;
13425;SDS011;6785;57.918;12.530;2024-03-08T07:49:25;18.40;;;7.87;;
13425;SDS011;6785;57.918;12.530;2024-03-08T07:51:52;13.40;;;8.17;;
13425;SDS011;6785;57.918;12.530;2024-03-08T07:54:18;16.60;;;7.90;;
13425;SDS011;6785;57.918;12.530;2024-03-08T07:56:45;16.60;;;7.87;;
13425;SDS011;6785;57.918;12.530;2024-03-08T07:59:12;12.03;;;7.40;;
13425;SDS011;6785;57.918;12.530;2024-03-08T08:01:39;13.20;;;8.23;;
13425;SDS011;6785;57.918;12.530;2024-03-08T08:04:08;13.13;;;7.53;;
13425;SDS011;6785;57.918;12.530;2024-03-08T08:06:37;17.83;;;7.83;;
13425;SDS011;6785;57.918;12.530;2024-03-08T08:09:06;10.17;;;7.17;;
13425;SDS011;6785;57.918;12.530;2024-03-08T08:11:39;13.57;;;7.50;;
13425;SDS011;6785;57.918;12.530;2024-03-08T08:14:08;15.43;;;8.20;;
13425;SDS011;6785;57.918;12.530;2024-03-08T08:16:35;13.87;;;8.00;;
13425;SDS011;6785;57.918;12.530;2024-03-08T08:19:04;11.83;;;7.60;;
13425;SDS011;6785;57.918;12.530;2024-03-08T08:21:41;11.10;;;7.13;;
13425;SDS011;6785;57.918;12.530;2024-03-08T08:24:08;13.13;;;8.40;;
13425;SDS011;6785;57.918;12.530;2024-03-08T08:26:36;15.10;;;8.00;;
13425;SDS011;6785;57.918;12.530;2024-03-08T08:29:03;12.13;;;7.73;;
13425;SDS011;6785;57.918;12.530;2024-03-08T08:31:31;11.73;;;8.30;;
13425;SDS011;6785;57.918;12.530;2024-03-08T08:33:58;13.70;;;8.33;;
13425;SDS011;6785;57.918;12.530;2024-03-08T08:36:25;16.70;;;8.07;;
13425;SDS011;6785;57.918;12.530;2024-03-08T08:38:56;11.77;;;8.33;;
13425;SDS011;6785;57.918;12.530;2024-03-08T08:41:23;18.83;;;9.40;;
13425;SDS011;6785;57.918;12.530;2024-03-08T08:43:50;11.53;;;8.50;;
13425;SDS011;6785;57.918;12.530;2024-03-08T08:46:17;13.63;;;8.57;;
13425;SDS011;6785;57.918;12.530;2024-03-08T08:48:43;12.83;;;8.50;;
13425;SDS011;6785;57.918;12.530;2024-03-08T08:51:11;11.03;;;8.03;;
13425;SDS011;6785;57.918;12.530;2024-03-08T08:53:38;13.33;;;8.23;;
13425;SDS011;6785;57.918;12.530;2024-03-08T08:56:09;12.17;;;8.53;;
13425;SDS011;6785;57.918;12.530;2024-03-08T08:58:38;13.97;;;9.40;;
13425;SDS011;6785;57.918;12.530;2024-03-08T09:01:05;11.77;;;8.37;;
13425;SDS011;6785;57.918;12.530;2024-03-08T09:03:33;12.93;;;8.27;;
13425;SDS011;6785;57.918;12.530;2024-03-08T09:06:01;12.20;;;7.43;;
13425;SDS011;6785;57.918;12.530;2024-03-08T09:08:29;10.27;;;7.43;;
13425;SDS011;6785;57.918;12.530;2024-03-08T09:10:59;14.27;;;8.00;;
13425;SDS011;6785;57.918;12.530;2024-03-08T09:13:27;13.17;;;7.50;;
13425;SDS011;6785;57.918;12.530;2024-03-08T09:15:53;16.13;;;7.47;;
13425;SDS011;6785;57.918;12.530;2024-03-08T09:18:23;12.50;;;7.57;;
13425;SDS011;6785;57.918;12.530;2024-03-08T09:20:50;11.90;;;6.53;;
13425;SDS011;6785;57.918;12.530;2024-03-08T09:23:19;14.60;;;6.23;;
13425;SDS011;6785;57.918;12.530;2024-03-08T09:25:46;9.67;;;6.47;;
13425;SDS011;6785;57.918;12.530;2024-03-08T09:28:12;10.63;;;6.80;;
13425;SDS011;6785;57.918;12.530;2024-03-08T09:30:40;12.23;;;7.33;;
13425;SDS011;6785;57.918;12.530;2024-03-08T09:33:07;11.73;;;7.37;;
13425;SDS011;6785;57.918;12.530;2024-03-08T09:35:34;10.77;;;6.70;;
13425;SDS011;6785;57.918;12.530;2024-03-08T09:38:01;10.33;;;6.43;;
13425;SDS011;6785;57.918;12.530;2024-03-08T09:40:29;9.23;;;6.10;;
13425;SDS011;6785;57.918;12.530;2024-03-08T09:42:57;9.73;;;6.43;;
13425;SDS011;6785;57.918;12.530;2024-03-08T09:45:26;15.50;;;6.40;;
13425;SDS011;6785;57.918;12.530;2024-03-08T09:47:58;12.93;;;7.43;;
13425;SDS011;6785;57.918;12.530;2024-03-08T09:50:24;11.60;;;7.60;;
13425;SDS011;6785;57.918;12.530;2024-03-08T09:52:52;12.97;;;6.63;;
13425;SDS011;6785;57.918;12.530;2024-03-08T09:55:23;10.23;;;7.00;;
13425;SDS011;6785;57.918;12.530;2024-03-08T09:57:59;10.13;;;6.97;;
13425;SDS011;6785;57.918;12.530;2024-03-08T10:01:01;11.80;;;6.87;;
13425;SDS011;6785;57.918;12.530;2024-03-08T10:03:32;9.13;;;6.60;;
13425;SDS011;6785;57.918;12.530;2024-03-08T10:05:59;10.17;;;7.40;;
13425;SDS011;6785;57.918;12.530;2024-03-08T10:08:26;11.07;;;6.53;;
13425;SDS011;6785;57.918;12.530;2024-03-08T10:10:55;11.53;;;6.50;;
13425;SDS011;6785;57.918;12.530;2024-03-08T10:13:23;9.17;;;6.37;;
13425;SDS011;6785;57.918;12.530;2024-03-08T10:15:52;11.60;;;6.87;;
13425;SDS011;6785;57.918;12.530;2024-03-08T10:18:19;11.73;;;6.30;;
13425;SDS011;6785;57.918;12.530;2024-03-08T10:20:48;8.70;;;6.27;;
13425;SDS011;6785;57.918;12.530;2024-03-08T10:23:30;10.70;;;6.50;;
13425;SDS011;6785;57.918;12.530;2024-03-08T10:25:57;9.70;;;6.43;;
13425;SDS011;6785;57.918;12.530;2024-03-08T10:28:23;14.20;;;6.23;;
13425;SDS011;6785;57.918;12.530;2024-03-08T10:30:50;9.17;;;6.03;;
13425;SDS011;6785;57.918;12.530;2024-03-08T10:33:17;9.97;;;5.27;;
13425;SDS011;6785;57.918;12.530;2024-03-08T10:35:44;8.27;;;6.27;;
13425;SDS011;6785;57.918;12.530;2024-03-08T10:38:12;12.03;;;5.67;;
13425;SDS011;6785;57.918;12.530;2024-03-08T10:40:46;10.17;;;5.87;;
13425;SDS011;6785;57.918;12.530;2024-03-08T10:43:18;8.00;;;5.50;;
13425;SDS011;6785;57.918;12.530;2024-03-08T10:45:50;8.83;;;5.50;;
13425;SDS011;6785;57.918;12.530;2024-03-08T10:48:26;8.30;;;5.30;;
13425;SDS011;6785;57.918;12.530;2024-03-08T10:50:57;7.80;;;4.93;;
13425;SDS011;6785;57.918;12.530;2024-03-08T10:53:27;7.37;;;5.47;;
13425;SDS011;6785;57.918;12.530;2024-03-08T10:55:54;7.77;;;5.00;;
13425;SDS011;6785;57.918;12.530;2024-03-08T10:58:23;8.07;;;4.80;;
13425;SDS011;6785;57.918;12.530;2024-03-08T11:00:52;7.17;;;4.53;;
13425;SDS011;6785;57.918;12.530;2024-03-08T11:06:13;8.50;;;4.57;;
13425;SDS011;6785;57.918;12.530;2024-03-08T11:08:43;9.17;;;4.80;;
13425;SDS011;6785;57.918;12.530;2024-03-08T11:11:23;5.47;;;4.10;;
13425;SDS011;6785;57.918;12.530;2024-03-08T11:13:55;6.03;;;4.50;;
13425;SDS011;6785;57.918;12.530;2024-03-08T11:19:23;8.17;;;4.80;;
13425;SDS011;6785;57.918;12.530;2024-03-08T11:21:57;5.87;;;4.40;;
13425;SDS011;6785;57.918;12.530;2024-03-08T11:24:25;5.87;;;4.00;;
13425;SDS011;6785;57.918;12.530;2024-03-08T11:26:54;5.03;;;3.70;;
13425;SDS011;6785;57.918;12.530;2024-03-08T11:29:34;5.87;;;4.50;;
13425;SDS011;6785;57.918;12.530;2024-03-08T11:32:04;6.97;;;4.20;;
13425;SDS011;6785;57.918;12.530;2024-03-08T11:34:35;5.93;;;4.50;;
13425;SDS011;6785;57.918;12.530;2024-03-08T11:37:03;8.40;;;4.10;;
13425;SDS011;6785;57.918;12.530;2024-03-08T11:39:33;7.33;;;3.40;;
13425;SDS011;6785;57.918;12.530;2024-03-08T11:42:02;6.07;;;3.77;;
13425;SDS011;6785;57.918;12.530;2024-03-08T11:44:29;11.97;;;4.50;;
13425;SDS011;6785;57.918;12.530;2024-03-08T11:46:57;6.63;;;4.13;;
13425;SDS011;6785;57.918;12.530;2024-03-08T11:49:23;12.03;;;4.37;;
13425;SDS011;6785;57.918;12.530;2024-03-08T11:51:52;7.07;;;4.10;;
13425;SDS011;6785;57.918;12.530;2024-03-08T11:54:20;5.83;;;4.10;;
13425;SDS011;6785;57.918;12.530;2024-03-08T11:56:49;6.30;;;4.23;;
13425;SDS011;6785;57.918;12.530;2024-03-08T11:59:18;6.90;;;4.50;;
13425;SDS011;6785;57.918;12.530;2024-03-08T12:01:56;7.37;;;4.20;;
13425;SDS011;6785;57.918;12.530;2024-03-08T12:04:30;6.50;;;3.90;;
13425;SDS011;6785;57.918;12.530;2024-03-08T12:06:59;7.10;;;4.73;;
13425;SDS011;6785;57.918;12.530;2024-03-08T12:09:27;9.53;;;4.00;;
13425;SDS011;6785;57.918;12.530;2024-03-08T12:11:55;6.87;;;4.23;;
13425;SDS011;6785;57.918;12.530;2024-03-08T12:14:24;6.53;;;3.73;;
13425;SDS011;6785;57.918;12.530;2024-03-08T12:16:51;9.37;;;4.13;;
13425;SDS011;6785;57.918;12.530;2024-03-08T12:19:18;5.47;;;3.77;;
13425;SDS011;6785;57.918;12.530;2024-03-08T12:21:45;8.00;;;4.17;;
13425;SDS011;6785;57.918;12.530;2024-03-08T12:24:18;5.80;;;3.70;;
13425;SDS011;6785;57.918;12.530;2024-03-08T12:26:46;5.87;;;3.33;;
13425;SDS011;6785;57.918;12.530;2024-03-08T12:29:18;10.57;;;3.80;;
13425;SDS011;6785;57.918;12.530;2024-03-08T12:31:47;5.07;;;3.23;;
13425;SDS011;6785;57.918;12.530;2024-03-08T12:34:19;7.47;;;3.40;;
13425;SDS011;6785;57.918;12.530;2024-03-08T12:36:46;5.83;;;3.73;;
13425;SDS011;6785;57.918;12.530;2024-03-08T12:39:18;4.70;;;3.27;;
13425;SDS011;6785;57.918;12.530;2024-03-08T12:41:47;3.90;;;3.33;;
13425;SDS011;6785;57.918;12.530;2024-03-08T12:44:18;7.03;;;3.23;;
13425;SDS011;6785;57.918;12.530;2024-03-08T12:46:46;4.70;;;3.40;;
13425;SDS011;6785;57.918;12.530;2024-03-08T12:49:13;8.83;;;3.80;;
13425;SDS011;6785;57.918;12.530;2024-03-08T12:51:43;5.00;;;3.70;;
13425;SDS011;6785;57.918;12.530;2024-03-08T12:54:10;7.37;;;3.63;;
13425;SDS011;6785;57.918;12.530;2024-03-08T12:56:37;5.23;;;3.53;;
13425;SDS011;6785;57.918;12.530;2024-03-08T12:59:04;7.97;;;3.87;;
13425;SDS011;6785;57.918;12.530;2024-03-08T13:01:33;5.73;;;3.80;;
13425;SDS011;6785;57.918;12.530;2024-03-08T13:04:02;5.47;;;3.80;;
13425;SDS011;6785;57.918;12.530;2024-03-08T13:06:31;8.60;;;3.60;;
13425;SDS011;6785;57.918;12.530;2024-03-08T13:08:58;7.30;;;3.97;;
13425;SDS011;6785;57.918;12.530;2024-03-08T13:11:32;5.60;;;3.70;;
13425;SDS011;6785;57.918;12.530;2024-03-08T13:14:01;7.20;;;3.63;;
13425;SDS011;6785;57.918;12.530;2024-03-08T13:16:30;7.57;;;3.70;;
13425;SDS011;6785;57.918;12.530;2024-03-08T13:18:58;5.03;;;3.47;;
13425;SDS011;6785;57.918;12.530;2024-03-08T13:21:25;6.17;;;3.60;;
13425;SDS011;6785;57.918;12.530;2024-03-08T13:23:55;5.00;;;3.80;;
13425;SDS011;6785;57.918;12.530;2024-03-08T13:26:24;6.70;;;3.63;;
13425;SDS011;6785;57.918;12.530;2024-03-08T13:28:55;5.30;;;3.70;;
13425;SDS011;6785;57.918;12.530;2024-03-08T13:31:23;7.33;;;3.80;;
13425;SDS011;6785;57.918;12.530;2024-03-08T13:33:50;4.80;;;3.57;;
13425;SDS011;6785;57.918;12.530;2024-03-08T13:36:24;5.50;;;3.83;;
13425;SDS011;6785;57.918;12.530;2024-03-08T13:38:54;7.47;;;3.67;;
13425;SDS011;6785;57.918;12.530;2024-03-08T13:41:26;5.27;;;3.50;;
13425;SDS011;6785;57.918;12.530;2024-03-08T13:43:53;4.00;;;3.57;;
13425;SDS011;6785;57.918;12.530;2024-03-08T13:46:20;7.33;;;3.77;;
13425;SDS011;6785;57.918;12.530;2024-03-08T13:48:47;9.60;;;3.33;;
13425;SDS011;6785;57.918;12.530;2024-03-08T13:51:16;4.67;;;3.30;;
13425;SDS011;6785;57.918;12.530;2024-03-08T13:53:44;5.30;;;3.50;;
13425;SDS011;6785;57.918;12.530;2024-03-08T13:56:11;3.27;;;2.90;;
13425;SDS011;6785;57.918;12.530;2024-03-08T13:58:40;5.90;;;3.50;;
13425;SDS011;6785;57.918;12.530;2024-03-08T14:01:09;9.40;;;3.53;;
13425;SDS011;6785;57.918;12.530;2024-03-08T14:03:38;8.00;;;3.43;;
13425;SDS011;6785;57.918;12.530;2024-03-08T14:06:06;6.80;;;3.63;;
13425;SDS011;6785;57.918;12.530;2024-03-08T14:08:36;5.13;;;3.30;;
13425;SDS011;6785;57.918;12.530;2024-03-08T14:11:05;4.73;;;3.60;;
13425;SDS011;6785;57.918;12.530;2024-03-08T14:13:36;5.30;;;3.27;;
13425;SDS011;6785;57.918;12.530;2024-03-08T14:16:10;12.63;;;3.70;;
13425;SDS011;6785;57.918;12.530;2024-03-08T14:18:38;4.07;;;3.33;;
13425;SDS011;6785;57.918;12.530;2024-03-08T14:21:05;6.00;;;3.80;;
13425;SDS011;6785;57.918;12.530;2024-03-08T14:23:33;5.97;;;3.33;;
13425;SDS011;6785;57.918;12.530;2024-03-08T14:26:01;5.27;;;3.70;;
13425;SDS011;6785;57.918;12.530;2024-03-08T14:28:29;5.00;;;3.40;;
13425;SDS011;6785;57.918;12.530;2024-03-08T14:30:57;5.93;;;3.53;;
13425;SDS011;6785;57.918;12.530;2024-03-08T14:33:27;4.10;;;3.30;;
13425;SDS011;6785;57.918;12.530;2024-03-08T14:35:54;8.57;;;3.53;;
13425;SDS011;6785;57.918;12.530;2024-03-08T14:38:24;10.10;;;3.63;;
13425;SDS011;6785;57.918;12.530;2024-03-08T14:40:52;6.50;;;3.80;;
13425;SDS011;6785;57.918;12.530;2024-03-08T14:43:20;9.67;;;4.43;;
13425;SDS011;6785;57.918;12.530;2024-03-08T14:45:49;8.90;;;4.20;;
13425;SDS011;6785;57.918;12.530;2024-03-08T14:48:15;9.90;;;3.87;;
13425;SDS011;6785;57.918;12.530;2024-03-08T14:50:44;6.80;;;3.27;;